Janika — V2YK9 — position and weather

sailwx.info

Track history (hours):
 
Tides and Currents Weather Stations Pressure Air Temp Water Temp Dewpoint Dewpoint Depression Visibility Wind Speed Wind Dir Waves Ship Positions

Janika

Last reported at 2014-Aug-02 02:33 UTC. Time now 2014-Aug-20 16:34 UTC.
Position N 17°07' W 061°46'.
Warning: this ship's position is 18 days out of date.

; draft 2.6 m.

Type: Tug. MMSI: 305732000.

Date/timePositionNaut miles runAvg speedWind from/ knotsBaromVisibWave heightAir tempDewpointWater temp
2014-Aug-02 02:33N 17°07' W 061°46'85 3.3
2014-Aug-01 01:16N 17°48' W 063°04'5 5.5
2014-Aug-01 00:18N 17°53' W 063°04'5 5.6
2014-Jul-31 23:22N 17°58' W 063°04'2 0.1
2014-Jul-30 21:04N 18°00' W 063°03'1 0.1
2014-Jul-30 11:11N 17°60' W 063°02'  
2014-Jul-26 21:08N 18°01' W 063°03'0 0.0
2014-Jul-26 10:30N 18°01' W 063°03'0 0.0
2014-Jul-25 22:32N 18°01' W 063°03'1 0.3
2014-Jul-25 18:33N 18°00' W 063°04'6 5.5
2014-Jul-25 17:30N 18°03' W 063°09'4 4.2
2014-Jul-25 16:30N 18°05' W 063°05'0 0.2
2014-Jul-25 15:30N 18°05' W 063°05'0 0.0
2014-Jul-25 14:31N 18°05' W 063°05'0 0.0
2014-Jul-25 13:27N 18°05' W 063°05'0 0.0
2014-Jul-25 12:33N 18°05' W 063°05'0 0.0
2014-Jul-25 11:33N 18°05' W 063°05'0 0.0
2014-Jul-25 10:33N 18°05' W 063°05'0 0.0
2014-Jul-25 09:33N 18°05' W 063°05'0 0.0
2014-Jul-25 08:32N 18°05' W 063°05'0 0.0
2014-Jul-25 07:32N 18°05' W 063°05'0 0.0
2014-Jul-25 06:31N 18°05' W 063°05'0 0.0
2014-Jul-25 05:27N 18°05' W 063°05'0 0.0
2014-Jul-25 04:23N 18°05' W 063°05'0 0.0
2014-Jul-25 03:14N 18°05' W 063°05'0 0.0
2014-Jul-25 02:21N 18°05' W 063°05'0 0.0
2014-Jul-25 01:25N 18°05' W 063°05'0 0.0
2014-Jul-25 00:08N 18°05' W 063°05'0 0.0
2014-Jul-24 23:24N 18°05' W 063°05'0 0.0
2014-Jul-24 22:20N 18°05' W 063°05'0 0.0
2014-Jul-24 21:33N 18°05' W 063°05'0 0.0
2014-Jul-24 20:26N 18°05' W 063°05'0 0.0
2014-Jul-24 19:33N 18°05' W 063°05'0 0.0
2014-Jul-24 18:32N 18°05' W 063°05'0 0.0
2014-Jul-24 17:29N 18°05' W 063°05'0 0.0
2014-Jul-24 16:28N 18°05' W 063°05'0 0.0
2014-Jul-24 15:31N 18°05' W 063°05'0 0.0
2014-Jul-24 14:32N 18°05' W 063°05'0 0.0
2014-Jul-24 13:24N 18°05' W 063°05'0 0.0
2014-Jul-24 12:32N 18°05' W 063°05'0 0.0
2014-Jul-24 11:29N 18°05' W 063°05'1 1.3
2014-Jul-24 10:26N 18°05' W 063°07'2 2.1
2014-Jul-24 09:24N 18°05' W 063°09'2 2.7
2014-Jul-24 08:33N 18°03' W 063°09'  
Track history (hours):
 
Tides and Currents Weather Stations Pressure Air Temp Water Temp Dewpoint Dewpoint Depression Visibility Wind Speed Wind Dir Waves Ship Positions

Janika

Last reported at 2014-Aug-02 02:33 UTC. Time now 2014-Aug-20 16:34 UTC.
Position N 17°07' W 061°46'.
Warning: this ship's position is 18 days out of date.

; draft 2.6 m.

Type: Tug. MMSI: 305732000.

Date/timePositionNaut miles runAvg speedWind from/ knotsBaromVisibWave heightAir tempDewpointWater temp
2014-Aug-02 02:33N 17°07' W 061°46'85 3.3
2014-Aug-01 01:16N 17°48' W 063°04'5 5.5
2014-Aug-01 00:18N 17°53' W 063°04'5 5.6
2014-Jul-31 23:22N 17°58' W 063°04'2 0.1
2014-Jul-30 21:04N 18°00' W 063°03'1 0.1
2014-Jul-30 11:11N 17°60' W 063°02'  
2014-Jul-26 21:08N 18°01' W 063°03'0 0.0
2014-Jul-26 10:30N 18°01' W 063°03'0 0.0
2014-Jul-25 22:32N 18°01' W 063°03'1 0.3
2014-Jul-25 18:33N 18°00' W 063°04'6 5.5
2014-Jul-25 17:30N 18°03' W 063°09'4 4.2
2014-Jul-25 16:30N 18°05' W 063°05'0 0.2
2014-Jul-25 15:30N 18°05' W 063°05'0 0.0
2014-Jul-25 14:31N 18°05' W 063°05'0 0.0
2014-Jul-25 13:27N 18°05' W 063°05'0 0.0
2014-Jul-25 12:33N 18°05' W 063°05'0 0.0
2014-Jul-25 11:33N 18°05' W 063°05'0 0.0
2014-Jul-25 10:33N 18°05' W 063°05'0 0.0
2014-Jul-25 09:33N 18°05' W 063°05'0 0.0
2014-Jul-25 08:32N 18°05' W 063°05'0 0.0
2014-Jul-25 07:32N 18°05' W 063°05'0 0.0
2014-Jul-25 06:31N 18°05' W 063°05'0 0.0
2014-Jul-25 05:27N 18°05' W 063°05'0 0.0
2014-Jul-25 04:23N 18°05' W 063°05'0 0.0
2014-Jul-25 03:14N 18°05' W 063°05'0 0.0
2014-Jul-25 02:21N 18°05' W 063°05'0 0.0
2014-Jul-25 01:25N 18°05' W 063°05'0 0.0
2014-Jul-25 00:08N 18°05' W 063°05'0 0.0
2014-Jul-24 23:24N 18°05' W 063°05'0 0.0
2014-Jul-24 22:20N 18°05' W 063°05'0 0.0
2014-Jul-24 21:33N 18°05' W 063°05'0 0.0
2014-Jul-24 20:26N 18°05' W 063°05'0 0.0
2014-Jul-24 19:33N 18°05' W 063°05'0 0.0
2014-Jul-24 18:32N 18°05' W 063°05'0 0.0
2014-Jul-24 17:29N 18°05' W 063°05'0 0.0
2014-Jul-24 16:28N 18°05' W 063°05'0 0.0
2014-Jul-24 15:31N 18°05' W 063°05'0 0.0
2014-Jul-24 14:32N 18°05' W 063°05'0 0.0
2014-Jul-24 13:24N 18°05' W 063°05'0 0.0
2014-Jul-24 12:32N 18°05' W 063°05'0 0.0
2014-Jul-24 11:29N 18°05' W 063°05'1 1.3
2014-Jul-24 10:26N 18°05' W 063°07'2 2.1
2014-Jul-24 09:24N 18°05' W 063°09'2 2.7
2014-Jul-24 08:33N 18°03' W 063°09'  

Dump ship's entire track history